Terminal Aerodrome Forecast
Issued by NWS

Home | Current Version | Previous Version | Text Only | Print | Product List | Glossary Off
Versions: 1 2 3 4 5 6 7 8 9 10 11 12 13 14 15 16 17 18 19 20 21 22 23 24 25 26 27 28 29 30 31 32 33 34 35 36 37

000
FTUS43 KGRB 011700
TAFRHI
TAF
KRHI 011724Z 0118/0218 25010KT P6SM SCT009 OVC022
      TEMPO 0118/0119 -SHRA
     FM012000 27010G18KT P6SM SCT015 BKN030 BKN100
     FM020000 27010KT P6SM SCT030 SCT150
     FM020300 27004KT P6SM SCT250
     FM020800 VRB03KT 2SM BR SCT002 SCT250
      TEMPO 0209/0213 3/4SM BR VV002
     FM021500 26007KT P6SM SCT035 BKN090=

USA.gov is the U.S. government's official web portal to all federal, state and local government web resources and services.